Kingfield, Maine
Current Conditions -  °F | °C
As of 1:35 AM on Monday 26 Jan 2015 (Local Time) from KWVL Reporting Station
Clear Clear  
Wind Chill: -15°   Ceiling: Unl
Heat Index: -15°   Visibility: 10mi
Dew Point: -22°   Wind: 0mph
Humidity: 56%   Direction: NA
Pressure: 30.02"   Gusts: NA
Location:  44.96°N, 70.15°W
Report Text: KWVL 260635Z 00000KT 10SM CLR M15/M22 A3002 RMK AO1
Loading
Personal Weather Stations






























Interactive Weather Map New forecast layout! Learn more

10-Day Weather Forecast

Advertisements
Track Severe Weather on mobile